sensor_id;sensor_type;location;lat;lon;timestamp;P1;durP1;ratioP1;P2;durP2;ratioP2
55053;SDS011;40954;45.668;18.980;2023-04-24T00:01:15;43.88;;;26.05;;
55053;SDS011;40954;45.668;18.980;2023-04-24T00:03:42;38.75;;;21.58;;
55053;SDS011;40954;45.668;18.980;2023-04-24T00:06:08;52.80;;;28.50;;
55053;SDS011;40954;45.668;18.980;2023-04-24T00:08:34;58.42;;;29.20;;
55053;SDS011;40954;45.668;18.980;2023-04-24T00:11:01;47.95;;;28.60;;
55053;SDS011;40954;45.668;18.980;2023-04-24T00:13:27;44.83;;;28.38;;
55053;SDS011;40954;45.668;18.980;2023-04-24T00:15:54;35.97;;;21.58;;
55053;SDS011;40954;45.668;18.980;2023-04-24T00:18:20;36.22;;;19.90;;
55053;SDS011;40954;45.668;18.980;2023-04-24T00:20:46;55.60;;;28.73;;
55053;SDS011;40954;45.668;18.980;2023-04-24T00:23:12;57.20;;;29.48;;
55053;SDS011;40954;45.668;18.980;2023-04-24T00:25:38;53.60;;;29.17;;
55053;SDS011;40954;45.668;18.980;2023-04-24T00:28:05;52.67;;;29.48;;
55053;SDS011;40954;45.668;18.980;2023-04-24T00:30:31;53.50;;;30.13;;
55053;SDS011;40954;45.668;18.980;2023-04-24T00:32:57;52.42;;;29.35;;
55053;SDS011;40954;45.668;18.980;2023-04-24T00:35:23;57.20;;;31.45;;
55053;SDS011;40954;45.668;18.980;2023-04-24T00:37:49;46.58;;;25.73;;
55053;SDS011;40954;45.668;18.980;2023-04-24T00:40:15;55.40;;;32.30;;
55053;SDS011;40954;45.668;18.980;2023-04-24T00:42:41;55.75;;;31.52;;
55053;SDS011;40954;45.668;18.980;2023-04-24T00:45:09;51.35;;;30.63;;
55053;SDS011;40954;45.668;18.980;2023-04-24T00:47:35;60.45;;;32.78;;
55053;SDS011;40954;45.668;18.980;2023-04-24T00:50:02;60.80;;;31.45;;
55053;SDS011;40954;45.668;18.980;2023-04-24T00:52:28;52.70;;;29.65;;
55053;SDS011;40954;45.668;18.980;2023-04-24T00:54:57;56.92;;;30.35;;
55053;SDS011;40954;45.668;18.980;2023-04-24T00:57:23;50.95;;;30.17;;
55053;SDS011;40954;45.668;18.980;2023-04-24T00:59:50;47.35;;;26.80;;
55053;SDS011;40954;45.668;18.980;2023-04-24T01:02:17;45.78;;;24.80;;
55053;SDS011;40954;45.668;18.980;2023-04-24T01:04:43;50.50;;;25.77;;
55053;SDS011;40954;45.668;18.980;2023-04-24T01:07:09;43.22;;;25.33;;
55053;SDS011;40954;45.668;18.980;2023-04-24T01:09:40;36.72;;;22.15;;
55053;SDS011;40954;45.668;18.980;2023-04-24T01:12:09;43.92;;;25.17;;
55053;SDS011;40954;45.668;18.980;2023-04-24T01:14:35;51.20;;;26.10;;
55053;SDS011;40954;45.668;18.980;2023-04-24T01:17:02;53.00;;;27.10;;
55053;SDS011;40954;45.668;18.980;2023-04-24T01:19:28;47.20;;;26.67;;
55053;SDS011;40954;45.668;18.980;2023-04-24T01:21:54;43.03;;;25.33;;
55053;SDS011;40954;45.668;18.980;2023-04-24T01:24:23;45.78;;;24.02;;
55053;SDS011;40954;45.668;18.980;2023-04-24T01:26:50;50.60;;;24.83;;
55053;SDS011;40954;45.668;18.980;2023-04-24T01:29:16;39.53;;;23.30;;
55053;SDS011;40954;45.668;18.980;2023-04-24T01:31:42;42.55;;;25.02;;
55053;SDS011;40954;45.668;18.980;2023-04-24T01:34:08;42.38;;;24.55;;
55053;SDS011;40954;45.668;18.980;2023-04-24T01:36:34;41.95;;;23.83;;
55053;SDS011;40954;45.668;18.980;2023-04-24T01:39:01;39.47;;;24.70;;
55053;SDS011;40954;45.668;18.980;2023-04-24T01:41:28;46.60;;;24.02;;
55053;SDS011;40954;45.668;18.980;2023-04-24T01:43:55;40.75;;;22.58;;
55053;SDS011;40954;45.668;18.980;2023-04-24T01:46:21;49.13;;;24.75;;
55053;SDS011;40954;45.668;18.980;2023-04-24T01:48:47;42.22;;;23.02;;
55053;SDS011;40954;45.668;18.980;2023-04-24T01:51:14;40.10;;;22.38;;
55053;SDS011;40954;45.668;18.980;2023-04-24T01:53:40;39.92;;;23.60;;
55053;SDS011;40954;45.668;18.980;2023-04-24T01:56:06;40.40;;;23.75;;
55053;SDS011;40954;45.668;18.980;2023-04-24T01:58:32;33.75;;;21.65;;
55053;SDS011;40954;45.668;18.980;2023-04-24T02:00:58;33.53;;;20.52;;
55053;SDS011;40954;45.668;18.980;2023-04-24T02:03:25;41.90;;;22.10;;
55053;SDS011;40954;45.668;18.980;2023-04-24T02:05:51;36.58;;;20.40;;
55053;SDS011;40954;45.668;18.980;2023-04-24T02:08:17;37.22;;;21.27;;
55053;SDS011;40954;45.668;18.980;2023-04-24T02:10:43;41.05;;;21.75;;
55053;SDS011;40954;45.668;18.980;2023-04-24T02:13:09;38.42;;;22.58;;
55053;SDS011;40954;45.668;18.980;2023-04-24T02:15:35;44.00;;;21.95;;
55053;SDS011;40954;45.668;18.980;2023-04-24T02:18:01;32.10;;;20.38;;
55053;SDS011;40954;45.668;18.980;2023-04-24T02:20:28;35.80;;;20.33;;
55053;SDS011;40954;45.668;18.980;2023-04-24T02:22:54;35.05;;;20.75;;
55053;SDS011;40954;45.668;18.980;2023-04-24T02:25:20;29.48;;;20.55;;
55053;SDS011;40954;45.668;18.980;2023-04-24T02:27:46;31.23;;;20.33;;
55053;SDS011;40954;45.668;18.980;2023-04-24T02:30:12;32.95;;;20.67;;
55053;SDS011;40954;45.668;18.980;2023-04-24T02:32:38;35.65;;;19.95;;
55053;SDS011;40954;45.668;18.980;2023-04-24T02:35:04;34.03;;;19.35;;
55053;SDS011;40954;45.668;18.980;2023-04-24T02:37:31;37.03;;;20.52;;
55053;SDS011;40954;45.668;18.980;2023-04-24T02:39:57;38.17;;;22.05;;
55053;SDS011;40954;45.668;18.980;2023-04-24T02:42:23;38.53;;;22.38;;
55053;SDS011;40954;45.668;18.980;2023-04-24T02:44:49;37.08;;;22.17;;
55053;SDS011;40954;45.668;18.980;2023-04-24T02:47:16;36.70;;;21.80;;
55053;SDS011;40954;45.668;18.980;2023-04-24T02:49:42;40.20;;;23.20;;
55053;SDS011;40954;45.668;18.980;2023-04-24T02:52:08;44.05;;;22.88;;
55053;SDS011;40954;45.668;18.980;2023-04-24T02:54:35;38.03;;;22.95;;
55053;SDS011;40954;45.668;18.980;2023-04-24T02:57:01;34.13;;;22.38;;
55053;SDS011;40954;45.668;18.980;2023-04-24T02:59:27;37.45;;;23.08;;
55053;SDS011;40954;45.668;18.980;2023-04-24T03:01:54;37.05;;;22.08;;
55053;SDS011;40954;45.668;18.980;2023-04-24T03:04:20;40.90;;;23.15;;
55053;SDS011;40954;45.668;18.980;2023-04-24T03:06:47;34.63;;;22.67;;
55053;SDS011;40954;45.668;18.980;2023-04-24T03:09:13;36.85;;;22.95;;
55053;SDS011;40954;45.668;18.980;2023-04-24T03:11:39;37.42;;;23.00;;
55053;SDS011;40954;45.668;18.980;2023-04-24T03:14:05;42.55;;;22.55;;
55053;SDS011;40954;45.668;18.980;2023-04-24T03:16:31;39.15;;;23.00;;
55053;SDS011;40954;45.668;18.980;2023-04-24T03:18:58;35.17;;;22.90;;
55053;SDS011;40954;45.668;18.980;2023-04-24T03:21:24;36.92;;;23.63;;
55053;SDS011;40954;45.668;18.980;2023-04-24T03:23:51;36.53;;;23.17;;
55053;SDS011;40954;45.668;18.980;2023-04-24T03:26:17;36.67;;;23.30;;
55053;SDS011;40954;45.668;18.980;2023-04-24T03:28:43;42.08;;;24.85;;
55053;SDS011;40954;45.668;18.980;2023-04-24T03:31:09;42.53;;;26.92;;
55053;SDS011;40954;45.668;18.980;2023-04-24T03:33:35;39.88;;;24.25;;
55053;SDS011;40954;45.668;18.980;2023-04-24T03:36:01;38.85;;;24.50;;
55053;SDS011;40954;45.668;18.980;2023-04-24T03:38:27;37.70;;;23.25;;
55053;SDS011;40954;45.668;18.980;2023-04-24T03:40:53;38.45;;;23.63;;
55053;SDS011;40954;45.668;18.980;2023-04-24T03:43:19;43.38;;;23.48;;
55053;SDS011;40954;45.668;18.980;2023-04-24T03:45:46;37.58;;;24.17;;
55053;SDS011;40954;45.668;18.980;2023-04-24T03:48:12;38.08;;;23.58;;
55053;SDS011;40954;45.668;18.980;2023-04-24T03:50:38;40.00;;;23.90;;
55053;SDS011;40954;45.668;18.980;2023-04-24T03:53:04;33.97;;;23.15;;
55053;SDS011;40954;45.668;18.980;2023-04-24T03:55:30;37.17;;;22.30;;
55053;SDS011;40954;45.668;18.980;2023-04-24T03:57:56;34.42;;;23.25;;
55053;SDS011;40954;45.668;18.980;2023-04-24T04:00:22;54.40;;;32.17;;
55053;SDS011;40954;45.668;18.980;2023-04-24T04:02:48;53.15;;;32.92;;
55053;SDS011;40954;45.668;18.980;2023-04-24T04:05:14;51.78;;;34.65;;
55053;SDS011;40954;45.668;18.980;2023-04-24T04:07:40;43.03;;;27.27;;
55053;SDS011;40954;45.668;18.980;2023-04-24T04:10:06;42.72;;;25.67;;
55053;SDS011;40954;45.668;18.980;2023-04-24T04:12:33;38.65;;;25.98;;
55053;SDS011;40954;45.668;18.980;2023-04-24T04:14:59;49.20;;;26.85;;
55053;SDS011;40954;45.668;18.980;2023-04-24T04:17:25;38.00;;;24.95;;
55053;SDS011;40954;45.668;18.980;2023-04-24T04:19:51;45.65;;;25.95;;
55053;SDS011;40954;45.668;18.980;2023-04-24T04:22:17;40.85;;;24.23;;
55053;SDS011;40954;45.668;18.980;2023-04-24T04:24:43;38.70;;;24.25;;
55053;SDS011;40954;45.668;18.980;2023-04-24T04:27:09;36.65;;;25.42;;
55053;SDS011;40954;45.668;18.980;2023-04-24T04:29:35;35.47;;;23.58;;
55053;SDS011;40954;45.668;18.980;2023-04-24T04:32:02;39.38;;;23.92;;
55053;SDS011;40954;45.668;18.980;2023-04-24T04:34:28;37.05;;;23.58;;
55053;SDS011;40954;45.668;18.980;2023-04-24T04:36:54;37.45;;;24.67;;
55053;SDS011;40954;45.668;18.980;2023-04-24T04:39:21;37.00;;;22.10;;
55053;SDS011;40954;45.668;18.980;2023-04-24T04:41:47;33.58;;;21.90;;
55053;SDS011;40954;45.668;18.980;2023-04-24T04:44:14;28.15;;;19.67;;
55053;SDS011;40954;45.668;18.980;2023-04-24T04:46:40;31.70;;;17.92;;
55053;SDS011;40954;45.668;18.980;2023-04-24T04:49:06;28.00;;;16.50;;
55053;SDS011;40954;45.668;18.980;2023-04-24T04:51:33;24.35;;;17.25;;
55053;SDS011;40954;45.668;18.980;2023-04-24T04:53:59;26.45;;;17.65;;
55053;SDS011;40954;45.668;18.980;2023-04-24T04:56:26;24.00;;;15.70;;
55053;SDS011;40954;45.668;18.980;2023-04-24T04:58:52;21.92;;;13.60;;
55053;SDS011;40954;45.668;18.980;2023-04-24T05:01:18;21.90;;;16.27;;
55053;SDS011;40954;45.668;18.980;2023-04-24T05:03:44;15.75;;;11.55;;
55053;SDS011;40954;45.668;18.980;2023-04-24T05:06:10;23.77;;;11.85;;
55053;SDS011;40954;45.668;18.980;2023-04-24T05:08:36;15.27;;;11.88;;
55053;SDS011;40954;45.668;18.980;2023-04-24T05:11:02;15.13;;;11.15;;
55053;SDS011;40954;45.668;18.980;2023-04-24T05:13:28;17.02;;;11.77;;
55053;SDS011;40954;45.668;18.980;2023-04-24T05:15:54;23.50;;;13.90;;
55053;SDS011;40954;45.668;18.980;2023-04-24T05:18:20;15.20;;;11.00;;
55053;SDS011;40954;45.668;18.980;2023-04-24T05:20:47;16.38;;;11.77;;
55053;SDS011;40954;45.668;18.980;2023-04-24T05:23:13;15.10;;;11.57;;
55053;SDS011;40954;45.668;18.980;2023-04-24T05:25:39;12.77;;;10.63;;
55053;SDS011;40954;45.668;18.980;2023-04-24T05:28:06;13.32;;;10.15;;
55053;SDS011;40954;45.668;18.980;2023-04-24T05:30:32;16.08;;;11.48;;
55053;SDS011;40954;45.668;18.980;2023-04-24T05:32:58;18.13;;;12.18;;
55053;SDS011;40954;45.668;18.980;2023-04-24T05:35:24;15.98;;;12.52;;
55053;SDS011;40954;45.668;18.980;2023-04-24T05:37:51;13.38;;;10.73;;
55053;SDS011;40954;45.668;18.980;2023-04-24T05:40:17;13.32;;;11.77;;
55053;SDS011;40954;45.668;18.980;2023-04-24T05:42:43;19.13;;;12.40;;
55053;SDS011;40954;45.668;18.980;2023-04-24T05:45:09;15.05;;;9.93;;
55053;SDS011;40954;45.668;18.980;2023-04-24T05:47:41;16.17;;;12.40;;
55053;SDS011;40954;45.668;18.980;2023-04-24T05:50:07;14.02;;;12.13;;
55053;SDS011;40954;45.668;18.980;2023-04-24T05:52:33;13.40;;;10.55;;
55053;SDS011;40954;45.668;18.980;2023-04-24T05:54:59;12.50;;;10.63;;
55053;SDS011;40954;45.668;18.980;2023-04-24T05:57:25;13.13;;;11.82;;
55053;SDS011;40954;45.668;18.980;2023-04-24T05:59:51;15.57;;;12.32;;
55053;SDS011;40954;45.668;18.980;2023-04-24T06:02:18;16.70;;;11.80;;
55053;SDS011;40954;45.668;18.980;2023-04-24T06:04:44;14.77;;;12.35;;
55053;SDS011;40954;45.668;18.980;2023-04-24T06:07:11;21.70;;;15.77;;
55053;SDS011;40954;45.668;18.980;2023-04-24T06:09:37;12.98;;;11.55;;
55053;SDS011;40954;45.668;18.980;2023-04-24T06:12:03;16.73;;;13.85;;
55053;SDS011;40954;45.668;18.980;2023-04-24T06:14:29;15.55;;;12.43;;
55053;SDS011;40954;45.668;18.980;2023-04-24T06:16:55;12.95;;;11.63;;
55053;SDS011;40954;45.668;18.980;2023-04-24T06:19:21;14.52;;;12.15;;
55053;SDS011;40954;45.668;18.980;2023-04-24T06:21:47;16.95;;;13.90;;
55053;SDS011;40954;45.668;18.980;2023-04-24T06:24:14;13.73;;;11.60;;
55053;SDS011;40954;45.668;18.980;2023-04-24T06:26:41;10.93;;;9.18;;
55053;SDS011;40954;45.668;18.980;2023-04-24T06:29:07;14.15;;;11.43;;
55053;SDS011;40954;45.668;18.980;2023-04-24T06:31:33;12.38;;;11.18;;
55053;SDS011;40954;45.668;18.980;2023-04-24T06:34:02;9.48;;;7.97;;
55053;SDS011;40954;45.668;18.980;2023-04-24T06:36:28;6.30;;;5.65;;
55053;SDS011;40954;45.668;18.980;2023-04-24T06:38:54;7.53;;;5.93;;
55053;SDS011;40954;45.668;18.980;2023-04-24T06:41:20;7.53;;;6.35;;
55053;SDS011;40954;45.668;18.980;2023-04-24T06:43:46;7.28;;;6.57;;
55053;SDS011;40954;45.668;18.980;2023-04-24T06:46:12;7.93;;;7.13;;
55053;SDS011;40954;45.668;18.980;2023-04-24T06:48:38;8.57;;;7.03;;
55053;SDS011;40954;45.668;18.980;2023-04-24T06:51:04;7.70;;;6.25;;
55053;SDS011;40954;45.668;18.980;2023-04-24T06:53:31;9.07;;;7.05;;
55053;SDS011;40954;45.668;18.980;2023-04-24T06:55:57;10.48;;;8.05;;
55053;SDS011;40954;45.668;18.980;2023-04-24T06:58:24;11.80;;;8.95;;
55053;SDS011;40954;45.668;18.980;2023-04-24T07:00:50;9.45;;;8.13;;
55053;SDS011;40954;45.668;18.980;2023-04-24T07:03:16;10.00;;;8.27;;
55053;SDS011;40954;45.668;18.980;2023-04-24T07:05:42;9.95;;;7.65;;
55053;SDS011;40954;45.668;18.980;2023-04-24T07:08:08;9.85;;;8.45;;
55053;SDS011;40954;45.668;18.980;2023-04-24T07:10:36;27.42;;;24.10;;
55053;SDS011;40954;45.668;18.980;2023-04-24T07:13:02;25.02;;;22.45;;
55053;SDS011;40954;45.668;18.980;2023-04-24T07:15:28;16.50;;;14.05;;
55053;SDS011;40954;45.668;18.980;2023-04-24T07:17:54;10.57;;;9.45;;
55053;SDS011;40954;45.668;18.980;2023-04-24T07:20:20;10.65;;;8.93;;
55053;SDS011;40954;45.668;18.980;2023-04-24T07:22:46;8.32;;;7.45;;
55053;SDS011;40954;45.668;18.980;2023-04-24T07:25:14;10.05;;;8.43;;
55053;SDS011;40954;45.668;18.980;2023-04-24T07:27:40;9.07;;;7.78;;
55053;SDS011;40954;45.668;18.980;2023-04-24T07:30:06;10.40;;;7.85;;
55053;SDS011;40954;45.668;18.980;2023-04-24T07:32:32;9.05;;;8.15;;
55053;SDS011;40954;45.668;18.980;2023-04-24T07:34:58;9.10;;;7.32;;
55053;SDS011;40954;45.668;18.980;2023-04-24T07:37:24;9.98;;;8.23;;
55053;SDS011;40954;45.668;18.980;2023-04-24T07:39:50;10.18;;;7.70;;
55053;SDS011;40954;45.668;18.980;2023-04-24T07:42:16;9.88;;;8.35;;
55053;SDS011;40954;45.668;18.980;2023-04-24T07:44:43;12.45;;;9.00;;
55053;SDS011;40954;45.668;18.980;2023-04-24T07:47:09;9.13;;;7.53;;
55053;SDS011;40954;45.668;18.980;2023-04-24T07:49:37;9.00;;;8.13;;
55053;SDS011;40954;45.668;18.980;2023-04-24T07:52:03;11.70;;;9.25;;
55053;SDS011;40954;45.668;18.980;2023-04-24T07:54:30;10.52;;;9.50;;
55053;SDS011;40954;45.668;18.980;2023-04-24T07:56:56;9.95;;;8.30;;
55053;SDS011;40954;45.668;18.980;2023-04-24T07:59:22;13.63;;;10.98;;
55053;SDS011;40954;45.668;18.980;2023-04-24T08:01:48;17.58;;;12.50;;
55053;SDS011;40954;45.668;18.980;2023-04-24T08:04:14;21.17;;;13.52;;
55053;SDS011;40954;45.668;18.980;2023-04-24T08:06:40;21.67;;;14.38;;
55053;SDS011;40954;45.668;18.980;2023-04-24T08:09:06;20.80;;;14.70;;
55053;SDS011;40954;45.668;18.980;2023-04-24T08:11:32;18.27;;;14.05;;
55053;SDS011;40954;45.668;18.980;2023-04-24T08:13:58;17.85;;;13.05;;
55053;SDS011;40954;45.668;18.980;2023-04-24T08:16:25;22.02;;;16.33;;
55053;SDS011;40954;45.668;18.980;2023-04-24T08:18:51;19.60;;;15.32;;
55053;SDS011;40954;45.668;18.980;2023-04-24T08:21:17;25.58;;;15.85;;
55053;SDS011;40954;45.668;18.980;2023-04-24T08:23:44;16.23;;;11.82;;
55053;SDS011;40954;45.668;18.980;2023-04-24T08:26:10;27.58;;;17.60;;
55053;SDS011;40954;45.668;18.980;2023-04-24T08:28:37;30.75;;;18.88;;
55053;SDS011;40954;45.668;18.980;2023-04-24T08:31:03;25.05;;;16.90;;
55053;SDS011;40954;45.668;18.980;2023-04-24T08:33:29;28.15;;;17.92;;
55053;SDS011;40954;45.668;18.980;2023-04-24T08:35:59;22.02;;;16.63;;
55053;SDS011;40954;45.668;18.980;2023-04-24T08:38:26;20.60;;;15.85;;
55053;SDS011;40954;45.668;18.980;2023-04-24T08:40:52;15.77;;;14.07;;
55053;SDS011;40954;45.668;18.980;2023-04-24T08:43:18;14.18;;;10.80;;
55053;SDS011;40954;45.668;18.980;2023-04-24T08:45:46;10.18;;;9.13;;
55053;SDS011;40954;45.668;18.980;2023-04-24T08:48:13;12.95;;;10.57;;
55053;SDS011;40954;45.668;18.980;2023-04-24T08:50:40;14.88;;;11.82;;
55053;SDS011;40954;45.668;18.980;2023-04-24T08:53:08;13.88;;;11.52;;
55053;SDS011;40954;45.668;18.980;2023-04-24T08:55:34;15.02;;;13.30;;
55053;SDS011;40954;45.668;18.980;2023-04-24T08:58:00;14.05;;;12.25;;
55053;SDS011;40954;45.668;18.980;2023-04-24T09:00:27;15.60;;;12.48;;
55053;SDS011;40954;45.668;18.980;2023-04-24T09:02:53;12.32;;;10.63;;
55053;SDS011;40954;45.668;18.980;2023-04-24T09:05:20;12.57;;;11.32;;
55053;SDS011;40954;45.668;18.980;2023-04-24T09:07:49;13.55;;;12.15;;
55053;SDS011;40954;45.668;18.980;2023-04-24T09:10:16;14.52;;;11.68;;
55053;SDS011;40954;45.668;18.980;2023-04-24T09:12:42;17.20;;;13.95;;
55053;SDS011;40954;45.668;18.980;2023-04-24T09:15:09;20.05;;;16.02;;
55053;SDS011;40954;45.668;18.980;2023-04-24T09:17:37;19.85;;;17.00;;
55053;SDS011;40954;45.668;18.980;2023-04-24T09:20:03;23.42;;;19.15;;
55053;SDS011;40954;45.668;18.980;2023-04-24T09:22:30;21.17;;;17.48;;
55053;SDS011;40954;45.668;18.980;2023-04-24T09:25:14;21.20;;;13.23;;
55053;SDS011;40954;45.668;18.980;2023-04-24T09:27:42;15.73;;;13.38;;
55053;SDS011;40954;45.668;18.980;2023-04-24T09:30:09;14.63;;;12.27;;
55053;SDS011;40954;45.668;18.980;2023-04-24T09:32:35;14.50;;;11.18;;
55053;SDS011;40954;45.668;18.980;2023-04-24T09:35:14;13.30;;;11.35;;
55053;SDS011;40954;45.668;18.980;2023-04-24T09:37:45;12.32;;;9.68;;
55053;SDS011;40954;45.668;18.980;2023-04-24T09:40:18;15.52;;;10.40;;
55053;SDS011;40954;45.668;18.980;2023-04-24T09:42:54;12.75;;;9.20;;
55053;SDS011;40954;45.668;18.980;2023-04-24T09:45:22;15.10;;;9.65;;
55053;SDS011;40954;45.668;18.980;2023-04-24T09:47:52;12.98;;;9.30;;
55053;SDS011;40954;45.668;18.980;2023-04-24T09:50:20;10.07;;;7.95;;
55053;SDS011;40954;45.668;18.980;2023-04-24T09:52:55;10.73;;;8.60;;
55053;SDS011;40954;45.668;18.980;2023-04-24T09:55:22;9.55;;;8.43;;
55053;SDS011;40954;45.668;18.980;2023-04-24T09:58:09;11.88;;;7.90;;
55053;SDS011;40954;45.668;18.980;2023-04-24T10:00:37;10.50;;;7.60;;
55053;SDS011;40954;45.668;18.980;2023-04-24T10:03:06;9.10;;;7.72;;
55053;SDS011;40954;45.668;18.980;2023-04-24T10:05:33;8.50;;;6.95;;
55053;SDS011;40954;45.668;18.980;2023-04-24T10:08:00;9.88;;;6.85;;
55053;SDS011;40954;45.668;18.980;2023-04-24T10:10:28;10.82;;;8.48;;
55053;SDS011;40954;45.668;18.980;2023-04-24T10:12:54;11.90;;;8.05;;
55053;SDS011;40954;45.668;18.980;2023-04-24T10:15:21;13.73;;;8.13;;
55053;SDS011;40954;45.668;18.980;2023-04-24T10:17:48;8.95;;;7.57;;
55053;SDS011;40954;45.668;18.980;2023-04-24T10:20:18;10.48;;;7.95;;
55053;SDS011;40954;45.668;18.980;2023-04-24T10:22:46;7.85;;;7.00;;
55053;SDS011;40954;45.668;18.980;2023-04-24T10:25:14;7.38;;;6.57;;
55053;SDS011;40954;45.668;18.980;2023-04-24T10:27:41;10.82;;;8.05;;
55053;SDS011;40954;45.668;18.980;2023-04-24T10:30:07;10.23;;;7.80;;
55053;SDS011;40954;45.668;18.980;2023-04-24T10:32:33;11.85;;;8.73;;
55053;SDS011;40954;45.668;18.980;2023-04-24T10:34:59;10.25;;;9.10;;
55053;SDS011;40954;45.668;18.980;2023-04-24T10:37:25;13.27;;;10.50;;
55053;SDS011;40954;45.668;18.980;2023-04-24T10:39:52;11.80;;;10.43;;
55053;SDS011;40954;45.668;18.980;2023-04-24T10:42:19;13.20;;;11.88;;
55053;SDS011;40954;45.668;18.980;2023-04-24T10:44:48;18.40;;;13.05;;
55053;SDS011;40954;45.668;18.980;2023-04-24T10:47:14;19.67;;;14.85;;
55053;SDS011;40954;45.668;18.980;2023-04-24T10:49:40;30.38;;;18.90;;
55053;SDS011;40954;45.668;18.980;2023-04-24T10:52:08;16.13;;;12.63;;
55053;SDS011;40954;45.668;18.980;2023-04-24T10:59:51;10.90;;;7.63;;
55053;SDS011;40954;45.668;18.980;2023-04-24T11:02:37;10.88;;;8.07;;
55053;SDS011;40954;45.668;18.980;2023-04-24T11:05:03;10.00;;;7.85;;
55053;SDS011;40954;45.668;18.980;2023-04-24T11:07:38;10.63;;;8.40;;
55053;SDS011;40954;45.668;18.980;2023-04-24T11:10:28;9.15;;;8.27;;
55053;SDS011;40954;45.668;18.980;2023-04-24T11:12:54;9.20;;;7.93;;
55053;SDS011;40954;45.668;18.980;2023-04-24T11:15:20;7.95;;;7.15;;
55053;SDS011;40954;45.668;18.980;2023-04-24T11:17:46;9.80;;;6.70;;
55053;SDS011;40954;45.668;18.980;2023-04-24T11:20:17;7.57;;;6.75;;
55053;SDS011;40954;45.668;18.980;2023-04-24T11:22:43;9.75;;;7.78;;
55053;SDS011;40954;45.668;18.980;2023-04-24T11:25:09;8.00;;;7.20;;
55053;SDS011;40954;45.668;18.980;2023-04-24T11:27:44;7.28;;;6.50;;
55053;SDS011;40954;45.668;18.980;2023-04-24T11:30:16;7.45;;;6.75;;
55053;SDS011;40954;45.668;18.980;2023-04-24T11:32:46;10.85;;;7.45;;
55053;SDS011;40954;45.668;18.980;2023-04-24T11:35:19;9.32;;;8.43;;
55053;SDS011;40954;45.668;18.980;2023-04-24T11:37:50;9.77;;;8.77;;
55053;SDS011;40954;45.668;18.980;2023-04-24T11:40:17;13.40;;;11.13;;
55053;SDS011;40954;45.668;18.980;2023-04-24T11:42:48;19.07;;;13.67;;
55053;SDS011;40954;45.668;18.980;2023-04-24T11:45:24;25.42;;;16.17;;
55053;SDS011;40954;45.668;18.980;2023-04-24T11:47:50;26.08;;;23.50;;
55053;SDS011;40954;45.668;18.980;2023-04-24T11:50:18;11.18;;;10.07;;
55053;SDS011;40954;45.668;18.980;2023-04-24T11:52:45;9.40;;;8.38;;
55053;SDS011;40954;45.668;18.980;2023-04-24T11:57:59;9.25;;;6.70;;
55053;SDS011;40954;45.668;18.980;2023-04-24T12:03:02;7.90;;;6.68;;
55053;SDS011;40954;45.668;18.980;2023-04-24T12:05:29;9.20;;;6.95;;
55053;SDS011;40954;45.668;18.980;2023-04-24T12:07:56;11.32;;;8.00;;
55053;SDS011;40954;45.668;18.980;2023-04-24T12:10:26;8.82;;;7.93;;
55053;SDS011;40954;45.668;18.980;2023-04-24T12:12:52;7.70;;;6.90;;
55053;SDS011;40954;45.668;18.980;2023-04-24T12:15:19;8.70;;;7.78;;
55053;SDS011;40954;45.668;18.980;2023-04-24T12:17:46;9.52;;;7.50;;
55053;SDS011;40954;45.668;18.980;2023-04-24T12:20:13;10.15;;;8.23;;
55053;SDS011;40954;45.668;18.980;2023-04-24T12:22:46;10.90;;;9.07;;
55053;SDS011;40954;45.668;18.980;2023-04-24T12:25:13;11.68;;;8.02;;
55053;SDS011;40954;45.668;18.980;2023-04-24T12:27:39;15.25;;;9.48;;
55053;SDS011;40954;45.668;18.980;2023-04-24T12:30:09;10.88;;;9.77;;
55053;SDS011;40954;45.668;18.980;2023-04-24T12:32:40;12.63;;;9.68;;
55053;SDS011;40954;45.668;18.980;2023-04-24T12:35:06;9.18;;;8.05;;
55053;SDS011;40954;45.668;18.980;2023-04-24T12:37:33;7.60;;;6.50;;
55053;SDS011;40954;45.668;18.980;2023-04-24T12:40:03;13.25;;;10.13;;
55053;SDS011;40954;45.668;18.980;2023-04-24T12:42:30;10.73;;;8.45;;
55053;SDS011;40954;45.668;18.980;2023-04-24T12:45:00;11.13;;;7.20;;
55053;SDS011;40954;45.668;18.980;2023-04-24T12:47:27;11.15;;;9.23;;
55053;SDS011;40954;45.668;18.980;2023-04-24T12:49:53;14.15;;;10.27;;
55053;SDS011;40954;45.668;18.980;2023-04-24T12:52:23;10.10;;;7.97;;
55053;SDS011;40954;45.668;18.980;2023-04-24T12:54:52;8.63;;;7.50;;
55053;SDS011;40954;45.668;18.980;2023-04-24T12:57:19;11.25;;;8.43;;
55053;SDS011;40954;45.668;18.980;2023-04-24T12:59:45;16.00;;;8.70;;
55053;SDS011;40954;45.668;18.980;2023-04-24T13:02:11;9.55;;;7.97;;
55053;SDS011;40954;45.668;18.980;2023-04-24T13:04:37;11.05;;;9.18;;
55053;SDS011;40954;45.668;18.980;2023-04-24T13:07:04;12.55;;;10.32;;
55053;SDS011;40954;45.668;18.980;2023-04-24T13:09:30;14.98;;;8.73;;
55053;SDS011;40954;45.668;18.980;2023-04-24T13:11:56;12.63;;;8.52;;
55053;SDS011;40954;45.668;18.980;2023-04-24T13:14:23;11.38;;;9.65;;
55053;SDS011;40954;45.668;18.980;2023-04-24T13:16:49;13.85;;;10.85;;
55053;SDS011;40954;45.668;18.980;2023-04-24T13:19:15;16.55;;;12.30;;
55053;SDS011;40954;45.668;18.980;2023-04-24T13:21:41;14.40;;;9.57;;
55053;SDS011;40954;45.668;18.980;2023-04-24T13:24:07;17.35;;;11.00;;
55053;SDS011;40954;45.668;18.980;2023-04-24T13:26:34;9.73;;;8.55;;
55053;SDS011;40954;45.668;18.980;2023-04-24T13:29:01;13.05;;;9.13;;
55053;SDS011;40954;45.668;18.980;2023-04-24T13:31:28;10.82;;;8.82;;
55053;SDS011;40954;45.668;18.980;2023-04-24T13:33:54;8.20;;;7.00;;
55053;SDS011;40954;45.668;18.980;2023-04-24T13:36:20;9.75;;;8.15;;
55053;SDS011;40954;45.668;18.980;2023-04-24T13:38:46;14.90;;;10.00;;
55053;SDS011;40954;45.668;18.980;2023-04-24T13:41:12;9.57;;;8.68;;
55053;SDS011;40954;45.668;18.980;2023-04-24T13:43:38;13.65;;;9.73;;
55053;SDS011;40954;45.668;18.980;2023-04-24T13:46:06;12.77;;;8.50;;
55053;SDS011;40954;45.668;18.980;2023-04-24T13:48:32;23.88;;;14.00;;
55053;SDS011;40954;45.668;18.980;2023-04-24T13:50:58;16.33;;;11.18;;
55053;SDS011;40954;45.668;18.980;2023-04-24T13:53:24;12.00;;;10.60;;
55053;SDS011;40954;45.668;18.980;2023-04-24T13:55:50;17.20;;;11.35;;
55053;SDS011;40954;45.668;18.980;2023-04-24T13:58:17;20.55;;;14.18;;
55053;SDS011;40954;45.668;18.980;2023-04-24T14:00:43;10.02;;;9.07;;
55053;SDS011;40954;45.668;18.980;2023-04-24T14:03:09;10.85;;;9.75;;
55053;SDS011;40954;45.668;18.980;2023-04-24T14:05:36;10.35;;;9.27;;
55053;SDS011;40954;45.668;18.980;2023-04-24T14:08:02;14.50;;;10.18;;
55053;SDS011;40954;45.668;18.980;2023-04-24T14:10:28;10.20;;;9.30;;
55053;SDS011;40954;45.668;18.980;2023-04-24T14:12:55;11.77;;;10.55;;
55053;SDS011;40954;45.668;18.980;2023-04-24T14:15:21;12.77;;;11.10;;
55053;SDS011;40954;45.668;18.980;2023-04-24T14:17:47;15.13;;;12.02;;
55053;SDS011;40954;45.668;18.980;2023-04-24T14:20:14;12.98;;;11.32;;
55053;SDS011;40954;45.668;18.980;2023-04-24T14:22:41;13.27;;;11.43;;
55053;SDS011;40954;45.668;18.980;2023-04-24T14:25:07;13.60;;;11.63;;